Time;durP1;ratioP1;P1;durP2;ratioP2;P2;SDS_P1;SDS_P2;PMS_P1;PMS_P2;Temp;Humidity;BMP_temperature;BMP_pressure;BME280_temperature;BME280_humidity;BME280_pressure;Samples;Min_cycle;Max_cycle;Signal;HPM_P1;HPM_P2
2022/11/20 00:00:20;;;;;;;1.60;1.50;;;;;;;6.67;100.00;95768.69;5012386;28;102239;-61
2022/11/20 00:02:48;;;;;;;2.70;1.70;;;;;;;6.66;100.00;95771.56;5033218;28;101753;-61
2022/11/20 00:05:15;;;;;;;2.83;1.80;;;;;;;6.69;100.00;95777.16;5030344;28;101752;-61
2022/11/20 00:07:42;;;;;;;2.90;1.50;;;;;;;6.67;100.00;95781.09;5030439;28;102293;-61
2022/11/20 00:10:09;;;;;;;1.70;1.23;;;;;;;6.66;100.00;95780.28;5011290;28;106841;-61
2022/11/20 00:12:38;;;;;;;2.20;1.30;;;;;;;6.61;100.00;95774.13;5011955;28;101944;-61
2022/11/20 00:15:06;;;;;;;1.40;1.30;;;;;;;6.61;100.00;95777.56;5011935;28;105589;-61
2022/11/20 00:17:32;;;;;;;1.43;1.17;;;;;;;6.63;100.00;95779.97;5029643;28;104269;-61
2022/11/20 00:19:59;;;;;;;1.67;1.20;;;;;;;6.60;100.00;95777.81;5029884;28;102155;-61
2022/11/20 00:22:27;;;;;;;1.37;1.27;;;;;;;6.62;100.00;95781.00;5012390;28;104767;-61
2022/11/20 00:24:53;;;;;;;1.37;1.27;;;;;;;6.60;100.00;95781.25;5014867;28;105809;-61
2022/11/20 00:27:20;;;;;;;1.30;1.20;;;;;;;6.59;100.00;95781.47;5029854;28;102515;-61
2022/11/20 00:29:49;;;;;;;2.43;1.10;;;;;;;6.56;100.00;95785.41;5029726;28;101966;-61
2022/11/20 00:32:16;;;;;;;1.17;1.07;;;;;;;6.56;100.00;95788.06;5011809;28;101877;-61
2022/11/20 00:34:43;;;;;;;1.40;1.30;;;;;;;6.60;100.00;95788.38;5029963;28;102493;-61
2022/11/20 00:37:10;;;;;;;1.30;1.20;;;;;;;6.56;100.00;95790.72;5029377;28;102849;-61
2022/11/20 00:39:37;;;;;;;1.60;1.50;;;;;;;6.54;100.00;95786.69;5029903;28;101810;-61
2022/11/20 00:42:04;;;;;;;1.63;1.00;;;;;;;6.54;100.00;95802.56;5029914;28;102258;-61
2022/11/20 00:44:31;;;;;;;1.20;1.10;;;;;;;6.57;100.00;95799.41;5011144;28;105405;-61
2022/11/20 00:47:00;;;;;;;1.10;1.00;;;;;;;6.56;100.00;95800.47;5033022;28;101957;-61
2022/11/20 00:49:26;;;;;;;0.80;0.80;;;;;;;6.55;100.00;95797.00;5010768;28;105490;-61
2022/11/20 00:51:53;;;;;;;1.03;1.03;;;;;;;6.56;100.00;95803.09;5011421;28;102131;-61
2022/11/20 00:54:20;;;;;;;1.73;1.03;;;;;;;6.56;100.00;95805.75;5030169;28;101741;-61
2022/11/20 00:56:47;;;;;;;1.20;1.10;;;;;;;6.57;100.00;95809.97;5010829;28;105790;-61
2022/11/20 00:59:14;;;;;;;1.20;1.10;;;;;;;6.54;100.00;95808.63;5029819;28;101836;-61
2022/11/20 01:01:42;;;;;;;3.03;1.50;;;;;;;6.52;100.00;95805.44;5029724;28;101723;-61
2022/11/20 01:04:11;;;;;;;1.77;1.20;;;;;;;6.52;100.00;95809.91;5029129;28;102618;-61
2022/11/20 01:06:41;;;;;;;1.27;1.17;;;;;;;6.52;100.00;95815.19;5032838;28;102183;-61
2022/11/20 01:09:11;;;;;;;1.07;1.00;;;;;;;6.50;100.00;95809.34;5029250;28;102596;-61
2022/11/20 01:11:41;;;;;;;1.30;1.20;;;;;;;6.50;100.00;95815.41;5011289;28;101913;-61
2022/11/20 01:14:11;;;;;;;1.40;1.20;;;;;;;6.52;100.00;95817.81;5010851;28;105671;-61
2022/11/20 01:16:40;;;;;;;1.30;1.20;;;;;;;6.51;100.00;95817.03;5028739;28;102843;-61
2022/11/20 01:19:13;;;;;;;1.30;1.20;;;;;;;6.53;100.00;95816.78;5029466;28;102159;-61
2022/11/20 01:21:42;;;;;;;1.00;1.00;;;;;;;6.50;100.00;95827.84;5029528;28;102350;-61
2022/11/20 01:24:13;;;;;;;1.30;1.20;;;;;;;6.53;100.00;95822.06;5028701;28;102512;-61
2022/11/20 01:26:42;;;;;;;1.13;1.13;;;;;;;6.54;100.00;95826.31;5029389;27;101682;-61
2022/11/20 01:29:13;;;;;;;1.77;1.10;;;;;;;6.52;100.00;95825.75;5035947;28;102355;-61
2022/11/20 01:31:41;;;;;;;2.10;1.57;;;;;;;6.51;100.00;95832.06;5014644;28;102091;-61
2022/11/20 01:34:13;;;;;;;1.63;1.53;;;;;;;6.52;100.00;95823.09;5014336;28;106634;-61
2022/11/20 01:36:42;;;;;;;1.03;1.03;;;;;;;6.54;100.00;95823.69;5013986;28;106522;-61
2022/11/20 01:39:12;;;;;;;1.00;1.00;;;;;;;6.55;100.00;95828.69;5032761;28;101729;-61
2022/11/20 01:44:46;;;;;;;1.27;1.20;;;;;;;6.52;100.00;95817.81;5031892;28;103029;-61
2022/11/20 01:47:17;;;;;;;1.20;1.10;;;;;;;6.54;100.00;95829.75;5013803;28;101977;-61
2022/11/20 01:49:49;;;;;;;1.33;1.27;;;;;;;6.53;100.00;95828.16;5014363;28;105288;-61
2022/11/20 01:52:19;;;;;;;1.40;1.30;;;;;;;6.53;100.00;95825.50;5017180;28;105467;-61
2022/11/20 01:54:51;;;;;;;1.33;1.20;;;;;;;6.53;100.00;95819.41;5032584;28;101635;-61
2022/11/20 01:57:20;;;;;;;1.10;1.10;;;;;;;6.52;100.00;95821.28;5013210;28;105283;-61
2022/11/20 01:59:55;;;;;;;1.47;1.40;;;;;;;6.50;100.00;95823.31;5032263;28;101862;-61
2022/11/20 02:02:22;;;;;;;1.30;1.20;;;;;;;6.53;100.00;95828.16;5014024;28;105761;-61
2022/11/20 02:04:55;;;;;;;2.87;1.30;;;;;;;6.53;100.00;95825.50;5013270;28;105992;-61
2022/11/20 02:07:23;;;;;;;1.57;1.47;;;;;;;6.51;100.00;95818.88;5013817;28;102027;-61
2022/11/20 02:09:50;;;;;;;1.33;1.30;;;;;;;6.52;100.00;95823.91;5013700;28;104147;-61
2022/11/20 02:14:59;;;;;;;1.87;1.20;;;;;;;6.51;100.00;95816.22;5015997;28;101812;-61
2022/11/20 02:17:27;;;;;;;1.90;1.37;;;;;;;6.52;100.00;95818.63;5013115;28;106775;-61
2022/11/20 02:19:55;;;;;;;1.30;1.20;;;;;;;6.52;100.00;95817.81;5031820;28;101799;-61
2022/11/20 02:22:30;;;;;;;1.50;1.40;;;;;;;6.50;100.00;95828.63;5032035;28;102581;-61
2022/11/20 02:25:02;;;;;;;1.40;1.30;;;;;;;6.53;100.00;95820.22;5031510;28;102594;-61
2022/11/20 02:27:30;;;;;;;2.10;1.20;;;;;;;6.54;100.00;95821.81;5032170;28;102012;-61
2022/11/20 02:30:00;;;;;;;1.50;1.40;;;;;;;6.52;100.00;95823.09;5031464;28;101836;-61
2022/11/20 02:32:31;;;;;;;1.40;1.30;;;;;;;6.49;100.00;95821.72;5013249;28;105356;-61
2022/11/20 02:34:58;;;;;;;1.63;1.53;;;;;;;6.55;100.00;95830.56;5031980;28;102473;-61
2022/11/20 02:37:31;;;;;;;1.33;1.30;;;;;;;6.53;100.00;95819.41;5016388;28;106451;-61
2022/11/20 02:40:00;;;;;;;1.60;1.50;;;;;;;6.51;100.00;95819.69;5011925;28;101831;-61
2022/11/20 02:42:28;;;;;;;1.63;1.43;;;;;;;6.51;100.00;95819.69;5031780;28;102537;-61
2022/11/20 02:44:55;;;;;;;1.70;1.60;;;;;;;6.51;100.00;95819.69;4996279;28;104218;-61
2022/11/20 02:47:22;;;;;;;1.27;1.20;;;;;;;6.53;100.00;95819.41;5031439;28;101785;-61
2022/11/20 02:49:49;;;;;;;1.77;1.30;;;;;;;6.53;100.00;95824.69;5031582;28;102630;-61
2022/11/20 02:52:16;;;;;;;1.17;1.13;;;;;;;6.53;100.00;95817.59;5030633;28;103179;-61
2022/11/20 02:54:43;;;;;;;1.13;1.13;;;;;;;6.56;100.00;95817.13;5013097;28;102241;-61
2022/11/20 02:57:11;;;;;;;1.47;1.37;;;;;;;6.57;100.00;95824.00;5013301;28;104214;-61
2022/11/20 02:59:38;;;;;;;2.87;1.40;;;;;;;6.56;100.00;95824.22;5033929;28;102039;-61
2022/11/20 03:02:06;;;;;;;1.40;1.30;;;;;;;6.55;100.00;95820.00;5031514;28;102840;-61
2022/11/20 03:04:33;;;;;;;1.47;1.37;;;;;;;6.59;100.00;95815.81;5030640;28;104408;-61
2022/11/20 03:07:00;;;;;;;1.33;1.23;;;;;;;6.57;100.00;95820.53;5031007;28;102507;-61
2022/11/20 03:09:27;;;;;;;1.33;1.23;;;;;;;6.55;100.00;95817.34;5031033;28;104292;-61
2022/11/20 03:11:55;;;;;;;1.70;1.60;;;;;;;6.53;100.00;95814.13;5012566;28;105284;-61
2022/11/20 03:14:23;;;;;;;1.53;1.43;;;;;;;6.55;100.00;95817.34;4996239;28;101825;-61
2022/11/20 03:16:51;;;;;;;1.60;1.50;;;;;;;6.55;100.00;95820.00;5031225;28;102348;-61
2022/11/20 03:19:17;;;;;;;1.80;1.50;;;;;;;6.53;100.00;95819.41;5034146;28;102834;-61
2022/11/20 03:21:46;;;;;;;1.37;1.30;;;;;;;6.53;100.00;95814.13;5012571;28;105982;-61
2022/11/20 03:24:14;;;;;;;1.47;1.37;;;;;;;6.53;100.00;95814.13;5030606;28;102670;-61
2022/11/20 03:26:41;;;;;;;3.37;1.53;;;;;;;6.54;100.00;95821.81;5030775;28;101801;-61
2022/11/20 03:29:08;;;;;;;1.90;1.70;;;;;;;6.52;100.00;95826.56;5012861;28;105307;-61
2022/11/20 03:31:42;;;;;;;1.40;1.30;;;;;;;6.53;100.00;95819.41;5030279;28;103105;-61
2022/11/20 03:34:10;;;;;;;1.83;1.57;;;;;;;6.53;100.00;95816.78;5030778;28;101913;-61
2022/11/20 03:36:39;;;;;;;1.80;1.70;;;;;;;6.52;100.00;95817.81;5030934;28;102277;-61
2022/11/20 03:39:06;;;;;;;2.13;1.70;;;;;;;6.50;100.00;95820.69;5011967;28;104099;-61
2022/11/20 03:41:38;;;;;;;1.80;1.70;;;;;;;6.55;100.00;95822.63;5015984;28;101877;-61
2022/11/20 03:44:08;;;;;;;1.80;1.70;;;;;;;6.49;100.00;95815.66;5011871;28;106483;-61
2022/11/20 03:46:35;;;;;;;1.70;1.60;;;;;;;6.49;100.00;95828.88;5012067;28;101956;-61
2022/11/20 03:49:04;;;;;;;2.03;1.87;;;;;;;6.45;100.00;95825.91;5030232;28;102367;-61
2022/11/20 03:51:33;;;;;;;1.80;1.70;;;;;;;6.45;100.00;95827.75;5029318;28;102568;-61
2022/11/20 03:54:02;;;;;;;2.07;1.87;;;;;;;6.42;100.00;95833.47;5012477;28;101850;-61
2022/11/20 03:56:30;;;;;;;2.13;2.00;;;;;;;6.41;100.00;95832.69;5012368;28;105773;-61
2022/11/20 03:58:58;;;;;;;3.63;2.50;;;;;;;6.43;100.00;95833.25;5029695;28;102586;-61
2022/11/20 04:01:27;;;;;;;2.07;1.87;;;;;;;6.44;100.00;95831.44;5030536;28;101824;-61
2022/11/20 04:03:56;;;;;;;1.93;1.80;;;;;;;6.42;100.00;95833.47;5014791;28;105530;-61
2022/11/20 04:06:27;;;;;;;1.87;1.73;;;;;;;6.41;100.00;95826.59;5012001;28;101894;-61
2022/11/20 04:08:56;;;;;;;1.90;1.80;;;;;;;6.37;100.00;95828.09;5011852;28;105481;-61
2022/11/20 04:11:24;;;;;;;2.37;1.90;;;;;;;6.37;100.00;95820.19;5029605;28;102742;-61
2022/11/20 04:13:54;;;;;;;1.90;1.80;;;;;;;6.35;100.00;95827.56;5030289;28;102220;-61
2022/11/20 04:16:22;;;;;;;2.97;2.03;;;;;;;6.34;100.00;95832.03;5011890;28;104116;-61
2022/11/20 04:18:53;;;;;;;3.60;1.83;;;;;;;6.31;100.00;95827.22;5011472;28;104625;-61
2022/11/20 04:21:20;;;;;;;2.60;2.00;;;;;;;6.30;100.00;95819.53;5011732;28;102131;-61
2022/11/20 04:23:48;;;;;;;2.30;2.10;;;;;;;6.27;100.00;95825.31;5030244;28;102367;-61
2022/11/20 04:26:15;;;;;;;2.77;2.57;;;;;;;6.24;100.00;95831.88;5014706;28;105988;-61
2022/11/20 04:28:42;;;;;;;2.00;1.90;;;;;;;6.24;100.00;95833.69;5029126;27;103327;-61
2022/11/20 04:31:11;;;;;;;3.27;2.00;;;;;;;6.21;100.00;95826.28;5016209;27;103083;-61
2022/11/20 04:33:39;;;;;;;2.60;2.20;;;;;;;6.22;100.00;95826.00;5028826;27;101830;-61
2022/11/20 04:36:09;;;;;;;2.40;2.20;;;;;;;6.22;100.00;95827.88;5020753;27;102516;-61
2022/11/20 04:38:36;;;;;;;2.43;2.20;;;;;;;6.18;100.00;95824.91;5006547;28;105440;-61
2022/11/20 04:41:07;;;;;;;3.07;2.30;;;;;;;6.16;100.00;95826.94;5007219;28;101913;-61
2022/11/20 04:43:34;;;;;;;2.93;2.30;;;;;;;6.17;100.00;95827.75;5024149;27;102563;-61
2022/11/20 04:46:02;;;;;;;2.67;2.13;;;;;;;6.15;100.00;95835.91;5009522;28;105266;-61
2022/11/20 04:48:30;;;;;;;2.63;2.43;;;;;;;6.13;100.00;95834.53;5010265;28;101950;-61
2022/11/20 04:50:58;;;;;;;3.37;2.40;;;;;;;6.12;100.00;95835.59;5009065;28;102657;-61
2022/11/20 04:53:26;;;;;;;2.33;2.13;;;;;;;6.12;100.00;95839.00;4991605;28;101914;-61
2022/11/20 04:56:00;;;;;;;3.00;2.70;;;;;;;6.16;100.00;95831.44;4991243;28;105291;-61
2022/11/20 04:58:29;;;;;;;2.93;2.63;;;;;;;6.16;100.00;95834.88;4991029;28;105487;-61
2022/11/20 05:01:02;;;;;;;2.40;2.20;;;;;;;6.17;100.00;95835.69;5009361;28;102233;-61
2022/11/20 05:03:30;;;;;;;2.40;2.20;;;;;;;6.12;100.00;95839.00;4993510;28;105781;-61
2022/11/20 05:06:01;;;;;;;3.13;2.20;;;;;;;6.17;100.00;95830.41;5012374;28;102691;-61
2022/11/20 05:08:29;;;;;;;2.60;2.30;;;;;;;6.15;100.00;95832.47;5015843;28;101807;-61
2022/11/20 05:11:01;;;;;;;3.00;2.10;;;;;;;6.16;100.00;95831.44;5012257;28;103026;-61
2022/11/20 05:13:30;;;;;;;2.87;2.60;;;;;;;6.12;100.00;95838.22;4994670;28;101860;-61
2022/11/20 05:16:02;;;;;;;2.73;2.53;;;;;;;6.17;100.00;95843.59;5012982;28;102345;-61
2022/11/20 05:18:29;;;;;;;2.43;2.23;;;;;;;6.16;100.00;95840.16;5011736;28;102491;-61
2022/11/20 05:20:57;;;;;;;2.93;2.60;;;;;;;6.19;100.00;95844.16;4994152;28;102126;-61
2022/11/20 05:23:25;;;;;;;2.57;2.37;;;;;;;6.22;100.00;95843.69;5013782;28;105156;-61
2022/11/20 05:25:54;;;;;;;3.20;2.40;;;;;;;6.19;100.00;95850.25;5000586;28;104152;-61
2022/11/20 05:28:21;;;;;;;2.43;2.23;;;;;;;6.19;100.00;95846.81;5029331;27;102214;-61
2022/11/20 05:30:50;;;;;;;3.43;2.40;;;;;;;6.22;100.00;95852.41;5024372;27;102469;-61
2022/11/20 05:33:17;;;;;;;2.73;2.53;;;;;;;6.23;100.00;95845.31;5023473;28;102340;-61
2022/11/20 05:35:44;;;;;;;3.33;2.53;;;;;;;6.24;100.00;95847.72;5030608;27;102473;-61
2022/11/20 05:38:12;;;;;;;2.73;2.20;;;;;;;6.22;100.00;95838.41;5031696;28;102644;-61
2022/11/20 05:40:39;;;;;;;3.23;2.77;;;;;;;6.22;100.00;95841.06;5032672;28;102313;-61
2022/11/20 05:43:05;;;;;;;4.10;2.80;;;;;;;6.22;100.00;95843.69;5032648;28;102415;-61
2022/11/20 05:45:32;;;;;;;2.47;2.30;;;;;;;6.22;100.00;95841.06;5031859;28;102828;-62
2022/11/20 05:48:01;;;;;;;2.50;2.30;;;;;;;6.21;100.00;95848.16;5032753;28;101774;-61
2022/11/20 05:50:29;;;;;;;3.30;2.50;;;;;;;6.24;100.00;95853.00;5014365;28;105096;-61
2022/11/20 05:52:58;;;;;;;2.80;2.60;;;;;;;6.26;100.00;95850.09;5017170;28;105316;-61
2022/11/20 05:55:25;;;;;;;3.40;2.53;;;;;;;6.22;100.00;95851.63;5032453;28;102485;-61
2022/11/20 05:57:53;;;;;;;3.10;2.77;;;;;;;6.25;100.00;95859.06;5013337;28;105398;-61
2022/11/20 06:00:20;;;;;;;3.97;2.53;;;;;;;6.22;100.00;95848.97;5014301;28;102036;-61
2022/11/20 06:02:48;;;;;;;3.17;2.53;;;;;;;6.23;100.00;95854.00;5032325;28;102820;-61
2022/11/20 06:05:17;;;;;;;2.90;2.70;;;;;;;6.25;100.00;95853.78;4997036;28;105939;-61
2022/11/20 06:07:44;;;;;;;2.90;2.70;;;;;;;6.21;100.00;95858.72;5031933;28;102023;-61
2022/11/20 06:10:11;;;;;;;2.63;2.43;;;;;;;6.23;100.00;95854.00;5014438;28;105603;-61
2022/11/20 06:12:39;;;;;;;2.63;2.43;;;;;;;6.23;100.00;95855.84;5046924;27;106747;-61
2022/11/20 06:15:07;;;;;;;3.20;2.90;;;;;;;6.25;100.00;95859.88;5035508;28;101863;-61
2022/11/20 06:17:35;;;;;;;3.40;3.10;;;;;;;6.27;100.00;95849.06;5013366;28;105436;-61
2022/11/20 06:20:02;;;;;;;3.53;3.23;;;;;;;6.23;100.00;95856.63;5032006;28;102016;-61
2022/11/20 06:22:33;;;;;;;3.10;2.80;;;;;;;6.22;100.00;95859.53;5014140;28;104489;-61
2022/11/20 06:25:00;;;;;;;2.87;2.50;;;;;;;6.18;100.00;95859.22;5013308;28;105637;-61
2022/11/20 06:27:28;;;;;;;5.87;4.43;;;;;;;6.20;100.00;95857.13;5031701;28;102232;-61
2022/11/20 06:29:54;;;;;;;2.90;2.70;;;;;;;6.18;100.00;95859.22;5031850;28;102883;-61
2022/11/20 06:32:22;;;;;;;3.17;2.77;;;;;;;6.20;100.00;95854.50;5031550;28;103254;-61
2022/11/20 06:34:50;;;;;;;6.93;5.10;;;;;;;6.21;100.00;95856.09;5013735;28;101801;-61
2022/11/20 06:37:17;;;;;;;8.47;5.63;;;;;;;6.23;100.00;95866.41;5014470;28;105378;-61
2022/11/20 06:39:46;;;;;;;4.50;3.20;;;;;;;6.25;100.00;95870.44;5013407;28;101909;-61
2022/11/20 06:45:36;;;;;;;2.90;2.60;;;;;;;6.27;100.00;95867.56;5012531;28;105782;-61
2022/11/20 06:48:03;;;;;;;2.37;2.20;;;;;;;6.26;100.00;95872.03;5014175;28;101789;-61
2022/11/20 06:50:31;;;;;;;2.67;2.40;;;;;;;6.29;100.00;95876.84;5032074;28;102285;-61
2022/11/20 06:53:22;;;;;;;5.13;2.93;;;;;;;6.36;100.00;95884.59;5031472;28;103035;-61
2022/11/20 06:55:51;;;;;;;3.43;3.03;;;;;;;6.44;100.00;95890.31;5014017;28;101903;-61
2022/11/20 06:58:19;;;;;;;2.93;2.73;;;;;;;6.44;100.00;95886.88;5013524;28;105136;-61
2022/11/20 07:00:46;;;;;;;2.97;2.67;;;;;;;6.43;100.00;95888.72;5016573;28;105398;-61
2022/11/20 07:03:34;;;;;;;2.27;2.10;;;;;;;6.47;100.00;95900.41;5031922;28;102567;-61
2022/11/20 07:06:05;;;;;;;2.13;1.97;;;;;;;6.46;100.00;95892.72;5031475;28;101699;-61
2022/11/20 07:08:32;;;;;;;2.20;2.10;;;;;;;6.48;100.00;95893.28;5013629;28;101859;-61
2022/11/20 07:11:03;;;;;;;2.13;1.93;;;;;;;6.46;100.00;95892.72;5013587;28;105257;-61
2022/11/20 07:13:34;;;;;;;3.40;2.43;;;;;;;6.47;100.00;95891.69;5012980;28;105339;-61
2022/11/20 07:16:02;;;;;;;2.43;2.03;;;;;;;6.48;100.00;95891.44;5031443;28;102117;-61
2022/11/20 07:18:29;;;;;;;4.23;2.30;;;;;;;6.48;100.00;95904.66;5013516;28;106455;-61
2022/11/20 07:20:57;;;;;;;3.83;2.50;;;;;;;6.47;100.00;95900.41;5034268;28;102471;-61
2022/11/20 07:23:25;;;;;;;2.47;2.30;;;;;;;6.49;100.00;95905.47;5031644;28;102285;-61
2022/11/20 07:25:52;;;;;;;2.83;2.60;;;;;;;6.48;100.00;95901.19;5028039;27;102601;-61
2022/11/20 07:28:20;;;;;;;2.77;2.20;;;;;;;6.45;100.00;95906.97;5013233;28;101887;-61
2022/11/20 07:30:51;;;;;;;2.50;2.30;;;;;;;6.49;100.00;95910.75;5031135;28;105047;-61
2022/11/20 07:33:28;;;;;;;3.00;2.70;;;;;;;6.50;100.00;95915.00;5012498;28;105707;-61
2022/11/20 07:36:01;;;;;;;2.87;2.57;;;;;;;6.52;100.00;95913.72;5031361;28;101734;-61
2022/11/20 07:38:30;;;;;;;2.60;2.40;;;;;;;6.52;100.00;95910.25;5013049;28;105714;-61
2022/11/20 07:41:01;;;;;;;2.87;2.67;;;;;;;6.51;100.00;95911.31;5008120;27;104680;-61
2022/11/20 07:43:30;;;;;;;2.90;2.70;;;;;;;6.53;100.00;95909.22;4993772;28;102088;-61
2022/11/20 07:45:59;;;;;;;2.50;2.30;;;;;;;6.52;100.00;95910.25;4991318;28;105738;-61
2022/11/20 07:48:27;;;;;;;2.40;2.20;;;;;;;6.55;100.00;95912.44;5010314;28;101960;-61
2022/11/20 07:50:55;;;;;;;2.30;2.10;;;;;;;6.49;100.00;95913.38;5010087;28;102521;-61
2022/11/20 07:53:22;;;;;;;2.10;1.80;;;;;;;6.47;100.00;95908.34;5009574;28;103065;-61
2022/11/20 07:55:50;;;;;;;2.20;2.00;;;;;;;6.48;100.00;95909.94;4991836;28;101778;-61
2022/11/20 07:58:16;;;;;;;2.63;2.43;;;;;;;6.53;100.00;95909.22;5009828;28;102789;-61
2022/11/20 08:00:45;;;;;;;2.33;2.00;;;;;;;6.55;100.00;95907.16;5009596;28;102476;-61
2022/11/20 08:03:12;;;;;;;3.53;2.60;;;;;;;6.71;100.00;95909.03;5010295;28;101922;-61
2022/11/20 08:05:39;;;;;;;2.37;2.17;;;;;;;6.79;100.00;95914.72;5012870;28;102922;-61
2022/11/20 08:08:06;;;;;;;2.47;2.00;;;;;;;7.02;100.00;95904.03;5007835;28;102585;-61
2022/11/20 08:10:33;;;;;;;2.20;1.90;;;;;;;7.16;100.00;95910.59;5023368;28;102444;-60
2022/11/20 08:15:51;;;;;;;1.90;1.80;;;;;;;7.25;100.00;95905.72;5029683;28;102079;-60
2022/11/20 08:18:18;;;;;;;1.80;1.60;;;;;;;7.12;100.00;95901.53;5011836;28;105220;-60
2022/11/20 08:20:46;;;;;;;1.97;1.87;;;;;;;7.32;100.00;95896.56;5010336;28;104241;-60
2022/11/20 08:23:14;;;;;;;1.90;1.80;;;;;;;7.50;100.00;95900.78;5030378;28;101974;-60
2022/11/20 08:25:41;;;;;;;2.07;1.90;;;;;;;7.55;100.00;95900.88;5011498;28;105099;-62
2022/11/20 08:28:10;;;;;;;1.60;1.50;;;;;;;7.52;100.00;95904.78;5017667;27;105512;-61
2022/11/20 08:30:38;;;;;;;2.00;1.83;;;;;;;7.68;100.00;95897.91;5011863;28;105865;-62
2022/11/20 08:33:10;;;;;;;1.83;1.73;;;;;;;7.81;100.00;95902.81;5029527;28;102663;-63
2022/11/20 08:35:38;;;;;;;2.27;1.90;;;;;;;7.79;100.00;95899.63;5029950;28;103605;-64
2022/11/20 08:38:05;;;;;;;2.30;2.10;;;;;;;7.81;100.00;95894.88;5014903;28;103994;-63
2022/11/20 08:40:32;;;;;;;1.63;1.53;;;;;;;7.87;100.00;95915.06;5032377;27;102696;-60
2022/11/20 08:43:00;;;;;;;1.43;1.30;;;;;;;8.05;100.00;95904.19;5014734;28;102243;-62
2022/11/20 08:45:27;;;;;;;1.30;1.10;;;;;;;8.26;100.00;95896.28;4998405;28;105808;-63
2022/11/20 08:47:54;;;;;;;1.20;0.90;;;;;;;8.49;100.00;95903.13;4992742;28;102492;-64
2022/11/20 08:50:23;;;;;;;1.80;0.80;;;;;;;8.54;100.00;95896.06;4996523;28;102172;-62
2022/11/20 08:52:50;;;;;;;0.87;0.87;;;;;;;8.61;100.00;95901.97;4992445;28;102712;-63
2022/11/20 08:55:18;;;;;;;1.70;1.40;;;;;;;8.62;100.00;95908.06;5007859;28;101988;-63
2022/11/20 08:57:45;;;;;;;0.80;0.80;;;;;;;8.57;100.00;95890.25;4991013;28;105248;-63
2022/11/20 09:00:13;;;;;;;0.80;0.80;;;;;;;8.51;100.00;95898.41;4990973;28;105508;-63
2022/11/20 09:02:41;;;;;;;1.40;0.90;;;;;;;8.34;100.00;95908.28;4993111;28;101811;-62
2022/11/20 09:05:09;;;;;;;1.57;1.20;;;;;;;8.26;100.00;95898.13;4989453;28;105165;-63
2022/11/20 09:07:37;;;;;;;1.10;1.10;;;;;;;8.36;100.00;95896.41;4992232;28;102780;-62
2022/11/20 09:10:05;;;;;;;1.10;1.00;;;;;;;8.36;100.00;95903.53;4992876;28;101933;-64
2022/11/20 09:12:32;;;;;;;1.10;1.10;;;;;;;8.32;100.00;95894.47;4994350;28;105777;-64
2022/11/20 09:15:00;;;;;;;1.20;0.80;;;;;;;8.39;100.00;95895.09;4992799;28;101754;-64
2022/11/20 09:17:27;;;;;;;0.90;0.90;;;;;;;8.45;100.00;95904.72;4973638;28;104869;-77
2022/11/20 09:19:54;;;;;;;1.40;1.30;;;;;;;8.67;100.00;95897.53;4971896;28;102694;-64
2022/11/20 09:22:22;;;;;;;1.03;1.00;;;;;;;9.12;100.00;95900.59;4972897;28;101874;-62
2022/11/20 09:24:50;;;;;;;0.90;0.90;;;;;;;9.26;100.00;95897.25;4971684;28;102304;-62
2022/11/20 09:27:20;;;;;;;1.13;0.90;;;;;;;9.02;100.00;95885.41;4972395;28;102115;-61
2022/11/20 09:29:47;;;;;;;1.37;0.87;;;;;;;9.05;100.00;95884.88;4971439;28;101817;-62
2022/11/20 09:32:14;;;;;;;0.80;0.60;;;;;;;9.21;100.00;95888.47;4974317;28;105610;-61
2022/11/20 09:34:41;;;;;;;0.63;0.60;;;;;;;9.06;100.00;95889.13;4972055;28;102098;-61
2022/11/20 09:37:07;;;;;;;0.83;0.60;;;;;;;9.23;97.92;95873.09;4972368;28;102638;-63
2022/11/20 09:39:38;;;;;;;0.60;0.60;;;;;;;9.56;97.98;95880.75;4970568;28;105384;-61
2022/11/20 09:42:18;;;;;;;0.87;0.57;;;;;;;9.53;92.66;95878.59;4970957;28;101891;-62
2022/11/20 09:45:03;;;;;;;0.40;0.40;;;;;;;9.47;85.48;95880.44;4972739;28;102874;-63
2022/11/20 09:47:44;;;;;;;0.60;0.50;;;;;;;9.96;88.54;95886.28;4969925;28;105765;-62
2022/11/20 09:50:24;;;;;;;0.50;0.50;;;;;;;10.01;84.94;95873.03;4971076;28;101774;-63
2022/11/20 09:53:10;;;;;;;1.10;0.80;;;;;;;9.79;85.96;95875.03;4971103;28;105594;-61
2022/11/20 09:55:38;;;;;;;0.70;0.70;;;;;;;9.37;87.62;95867.09;4994374;28;103082;-62
2022/11/20 09:58:14;;;;;;;0.67;0.67;;;;;;;9.47;89.93;95876.97;4991675;28;102387;-62
2022/11/20 10:00:41;;;;;;;0.70;0.50;;;;;;;9.19;87.49;95869.34;4989391;28;105333;-63
2022/11/20 10:03:18;;;;;;;1.20;1.10;;;;;;;9.24;90.33;95866.72;4992086;28;101936;-63
2022/11/20 10:05:47;;;;;;;0.70;0.70;;;;;;;9.05;88.31;95868.19;4972607;28;102856;-63
2022/11/20 10:08:20;;;;;;;0.60;0.60;;;;;;;8.97;86.84;95868.63;4985828;28;106170;-64
2022/11/20 10:10:51;;;;;;;0.60;0.60;;;;;;;9.13;90.84;95857.09;4992211;28;101825;-71
2022/11/20 10:13:37;;;;;;;0.60;0.60;;;;;;;9.07;87.49;95858.09;5007765;28;105618;-66
2022/11/20 10:16:20;;;;;;;0.80;0.80;;;;;;;9.11;90.63;95853.91;4990298;28;104611;-64
2022/11/20 10:18:58;;;;;;;1.00;0.90;;;;;;;9.01;81.92;95843.22;4993856;28;101917;-66
2022/11/20 10:21:36;;;;;;;0.80;0.80;;;;;;;9.02;77.89;95858.88;4989856;28;105372;-65
2022/11/20 10:24:36;;;;;;;0.77;0.77;;;;;;;9.08;82.02;95849.91;4990425;28;101893;-66
2022/11/20 10:27:16;;;;;;;0.67;0.67;;;;;;;9.10;83.87;95844.34;4990726;28;105282;-65
2022/11/20 10:29:50;;;;;;;0.80;0.80;;;;;;;9.13;80.64;95838.53;4990906;28;102928;-65
2022/11/20 10:32:21;;;;;;;1.30;1.20;;;;;;;9.19;85.57;95837.50;4991347;28;101922;-64
2022/11/20 10:34:54;;;;;;;2.77;1.13;;;;;;;9.24;84.13;95840.19;4991795;28;102427;-66
2022/11/20 10:37:25;;;;;;;0.87;0.80;;;;;;;9.22;81.96;95837.00;4989082;28;105155;-67
2022/11/20 10:39:59;;;;;;;1.93;1.70;;;;;;;9.21;73.77;95838.06;4992067;28;101746;-67
2022/11/20 10:42:33;;;;;;;0.90;0.90;;;;;;;9.34;71.62;95832.31;4993965;28;102553;-67
2022/11/20 10:45:21;;;;;;;0.50;0.50;;;;;;;9.32;67.91;95837.09;4989463;28;102121;-67
2022/11/20 10:47:49;;;;;;;0.80;0.80;;;;;;;9.36;66.55;95816.91;5027069;28;102516;-67
2022/11/20 10:50:21;;;;;;;0.70;0.70;;;;;;;9.36;65.49;95825.69;5029900;28;102549;-68
2022/11/20 10:52:57;;;;;;;0.90;0.90;;;;;;;9.62;67.59;95822.13;5013312;28;101986;-67
2022/11/20 10:55:34;;;;;;;0.80;0.80;;;;;;;10.04;67.92;95824.72;5013460;28;105196;-67
2022/11/20 10:58:11;;;;;;;0.93;0.93;;;;;;;9.99;66.67;95811.41;5011868;28;105309;-67
2022/11/20 11:00:40;;;;;;;1.30;1.20;;;;;;;9.92;67.44;95818.81;4992346;28;101770;-67
2022/11/20 11:03:22;;;;;;;0.63;0.63;;;;;;;9.99;66.58;95811.41;4994352;28;105309;-67
2022/11/20 11:05:52;;;;;;;0.83;0.83;;;;;;;9.99;68.43;95811.41;5015517;28;104980;-67
2022/11/20 11:08:21;;;;;;;1.20;1.20;;;;;;;10.16;68.90;95809.34;5012921;28;105300;-67
2022/11/20 11:10:54;;;;;;;1.10;1.00;;;;;;;9.93;71.17;95801.81;5012622;28;106037;-67
2022/11/20 11:13:23;;;;;;;0.70;0.70;;;;;;;9.80;65.12;95805.75;5012749;28;101818;-67
2022/11/20 11:15:52;;;;;;;0.70;0.70;;;;;;;9.80;64.62;95802.28;5013013;28;105435;-67
2022/11/20 11:18:26;;;;;;;0.67;0.67;;;;;;;9.92;64.23;95806.31;5011636;28;105345;-67
2022/11/20 11:20:54;;;;;;;0.60;0.60;;;;;;;9.96;65.92;95806.59;5030978;28;101977;-67
2022/11/20 11:23:33;;;;;;;0.70;0.70;;;;;;;9.99;67.51;95801.59;5012641;28;105212;-67
2022/11/20 11:26:01;;;;;;;0.57;0.57;;;;;;;10.12;64.37;95805.63;5030547;28;102586;-67
2022/11/20 11:28:29;;;;;;;0.50;0.50;;;;;;;9.98;66.70;95805.28;5015952;28;103617;-67
2022/11/20 11:30:58;;;;;;;0.70;0.70;;;;;;;10.02;67.31;95797.59;5011805;28;105459;-67
2022/11/20 11:33:27;;;;;;;0.60;0.57;;;;;;;9.88;65.51;95788.53;5012598;28;101879;-67
2022/11/20 11:35:57;;;;;;;0.80;0.80;;;;;;;9.89;66.56;95785.63;5012521;28;105139;-67
2022/11/20 11:38:31;;;;;;;0.50;0.50;;;;;;;9.68;68.37;95791.09;5029424;28;104607;-67
2022/11/20 11:40:59;;;;;;;0.60;0.60;;;;;;;9.86;71.67;95783.47;5030685;28;103411;-67
2022/11/20 11:46:28;;;;;;;0.80;0.80;;;;;;;9.89;71.64;95790.13;5020197;28;103433;-68
2022/11/20 11:48:57;;;;;;;0.50;0.50;;;;;;;9.89;68.63;95774.19;5033957;28;101813;-67
2022/11/20 11:51:30;;;;;;;0.50;0.50;;;;;;;9.99;71.58;95780.34;5029817;28;103115;-67